createdAt,value
2017-11-30T00:01:17.387Z,6.60
2017-11-30T00:03:46.281Z,6.90
2017-11-30T00:06:14.522Z,6.90
2017-11-30T00:08:44.857Z,6.90
2017-11-30T00:11:14.175Z,7.10
2017-11-30T00:13:43.697Z,7.40
2017-11-30T00:16:12.809Z,7.40
2017-11-30T00:18:41.824Z,7.20
2017-11-30T00:21:10.555Z,7.50
2017-11-30T00:23:39.497Z,7.30
2017-11-30T00:26:08.877Z,7.10
2017-11-30T00:28:38.257Z,6.70
2017-11-30T00:31:07.054Z,6.70
2017-11-30T00:33:35.802Z,6.80
2017-11-30T00:36:04.883Z,7.20
2017-11-30T00:41:08.817Z,6.80
2017-11-30T00:43:37.707Z,6.70
2017-11-30T00:46:06.503Z,6.70
2017-11-30T00:48:35.275Z,6.50
2017-11-30T00:51:04.337Z,6.30
2017-11-30T00:53:32.989Z,6.30
2017-11-30T00:56:02.041Z,6.10
2017-11-30T00:58:30.968Z,6.00
2017-11-30T01:00:59.741Z,5.90
2017-11-30T01:03:29.050Z,6.20
2017-11-30T01:05:57.825Z,6.20
2017-11-30T01:08:26.633Z,6.30
2017-11-30T01:10:55.452Z,6.30
2017-11-30T01:13:24.944Z,6.40
2017-11-30T01:15:54.183Z,6.10
2017-11-30T01:18:23.209Z,6.10
2017-11-30T01:20:53.227Z,5.80
2017-11-30T01:23:22.124Z,5.80
2017-11-30T01:25:50.829Z,5.80
2017-11-30T01:28:20.165Z,5.60
2017-11-30T01:30:49.262Z,5.40
2017-11-30T01:33:18.825Z,5.40
2017-11-30T01:35:47.506Z,5.40
2017-11-30T01:38:16.834Z,5.60
2017-11-30T01:40:45.886Z,5.60
2017-11-30T01:43:14.771Z,5.60
2017-11-30T01:45:43.621Z,5.60
2017-11-30T01:48:12.830Z,5.80
2017-11-30T01:50:42.055Z,6.30
2017-11-30T01:53:11.320Z,6.70
2017-11-30T01:55:40.384Z,7.00
2017-11-30T01:58:09.466Z,7.00
2017-11-30T02:00:38.795Z,7.40
2017-11-30T02:03:09.057Z,7.70
2017-11-30T02:05:37.865Z,7.40
2017-11-30T02:08:06.780Z,6.80
2017-11-30T02:10:36.225Z,6.50
2017-11-30T02:13:05.050Z,6.50
2017-11-30T02:15:34.372Z,5.90
2017-11-30T02:18:03.172Z,5.90
2017-11-30T02:20:32.275Z,5.70
2017-11-30T02:23:02.053Z,5.70
2017-11-30T02:25:31.450Z,5.70
2017-11-30T02:28:00.657Z,5.40
2017-11-30T02:30:29.616Z,5.20
2017-11-30T02:32:58.698Z,5.20
2017-11-30T02:35:27.927Z,5.20
2017-11-30T02:37:57.405Z,5.20
2017-11-30T02:40:26.279Z,5.50
2017-11-30T02:42:55.550Z,5.60
2017-11-30T02:45:24.381Z,5.50
2017-11-30T02:47:53.142Z,5.50
2017-11-30T02:50:22.317Z,5.50
2017-11-30T02:52:51.673Z,6.10
2017-11-30T02:55:20.718Z,6.10
2017-11-30T02:57:49.585Z,6.80
2017-11-30T03:00:18.375Z,7.00
2017-11-30T03:02:47.683Z,6.80
2017-11-30T03:05:16.691Z,6.70
2017-11-30T03:07:45.778Z,6.70
2017-11-30T03:10:15.270Z,7.20
2017-11-30T03:12:44.143Z,7.50
2017-11-30T03:15:14.181Z,7.40
2017-11-30T03:17:44.213Z,7.80
2017-11-30T03:20:13.160Z,7.80
2017-11-30T03:22:42.181Z,8.00
2017-11-30T03:25:11.282Z,8.00
2017-11-30T03:27:40.287Z,8.00
2017-11-30T03:30:09.114Z,8.10
2017-11-30T03:32:38.027Z,8.10
2017-11-30T03:35:06.802Z,8.30
2017-11-30T03:37:36.361Z,7.50
2017-11-30T03:40:05.306Z,7.50
2017-11-30T03:42:34.025Z,6.90
2017-11-30T03:45:03.419Z,6.40
2017-11-30T03:47:32.158Z,6.40
2017-11-30T03:50:01.738Z,6.40
2017-11-30T03:52:30.932Z,6.40
2017-11-30T03:55:00.321Z,6.80
2017-11-30T03:57:30.174Z,6.80
2017-11-30T03:59:59.605Z,7.80
2017-11-30T04:02:28.441Z,7.80
2017-11-30T04:04:57.668Z,7.90
2017-11-30T04:07:26.785Z,7.90
2017-11-30T04:09:55.896Z,8.00
2017-11-30T04:12:25.151Z,8.30
2017-11-30T04:14:54.332Z,8.30
2017-11-30T04:17:23.037Z,8.30
2017-11-30T04:19:51.923Z,8.20
2017-11-30T04:22:20.819Z,8.50
2017-11-30T04:24:50.175Z,8.80
2017-11-30T04:27:18.757Z,8.80
2017-11-30T04:29:47.791Z,7.70
2017-11-30T04:32:16.581Z,7.70
2017-11-30T04:34:45.263Z,7.40
2017-11-30T04:37:14.474Z,7.00
2017-11-30T04:39:43.957Z,6.90
2017-11-30T04:42:12.807Z,6.90
2017-11-30T04:44:41.627Z,7.30
2017-11-30T04:47:10.173Z,7.80
2017-11-30T04:49:39.053Z,8.10
2017-11-30T04:52:07.743Z,8.40
2017-11-30T04:54:37.325Z,8.10
2017-11-30T04:57:06.233Z,8.10
2017-11-30T04:59:35.805Z,7.40
2017-11-30T05:02:06.181Z,7.80
2017-11-30T05:04:35.412Z,7.80
2017-11-30T05:07:03.813Z,8.00
2017-11-30T05:09:32.473Z,8.40
2017-11-30T05:12:00.774Z,8.40
2017-11-30T05:14:29.474Z,8.80
2017-11-30T05:16:58.427Z,9.40
2017-11-30T05:19:27.194Z,9.40
2017-11-30T05:21:55.682Z,9.40
2017-11-30T05:24:23.946Z,9.00
2017-11-30T05:26:52.542Z,8.30
2017-11-30T05:29:21.433Z,7.70
2017-11-30T05:31:49.701Z,7.50
2017-11-30T05:34:17.950Z,7.50
2017-11-30T05:36:46.221Z,6.90
2017-11-30T05:39:15.051Z,6.60
2017-11-30T05:41:43.331Z,6.20
2017-11-30T05:44:11.578Z,6.50
2017-11-30T05:46:39.823Z,6.80
2017-11-30T05:49:08.087Z,7.00
2017-11-30T05:51:36.643Z,7.20
2017-11-30T05:54:06.527Z,7.50
2017-11-30T05:56:35.249Z,7.20
2017-11-30T05:59:03.494Z,7.10
2017-11-30T06:01:31.751Z,7.30
2017-11-30T06:04:00.029Z,7.50
2017-11-30T06:06:28.261Z,8.00
2017-11-30T06:08:56.923Z,8.60
2017-11-30T06:11:25.194Z,8.60
2017-11-30T06:13:53.444Z,8.80
2017-11-30T06:16:21.718Z,8.50
2017-11-30T06:18:50.011Z,8.30
2017-11-30T06:21:18.247Z,8.30
2017-11-30T06:23:46.504Z,8.40
2017-11-30T06:26:15.153Z,8.00
2017-11-30T06:28:43.425Z,8.00
2017-11-30T06:31:11.924Z,8.30
2017-11-30T06:33:40.172Z,8.70
2017-11-30T06:36:08.425Z,8.30
2017-11-30T06:38:36.767Z,7.60
2017-11-30T06:41:05.033Z,7.40
2017-11-30T06:43:33.286Z,7.70
2017-11-30T06:46:01.648Z,8.20
2017-11-30T06:48:29.902Z,8.40
2017-11-30T06:50:58.184Z,8.00
2017-11-30T06:53:26.443Z,7.70
2017-11-30T06:55:54.696Z,7.60
2017-11-30T06:58:23.390Z,7.60
2017-11-30T07:00:52.028Z,7.70
2017-11-30T07:03:20.633Z,7.80
2017-11-30T07:05:48.924Z,7.80
2017-11-30T07:08:17.247Z,7.60
2017-11-30T07:10:45.512Z,7.60
2017-11-30T07:13:13.843Z,7.40
2017-11-30T07:15:42.089Z,7.20
2017-11-30T07:18:10.403Z,7.10
2017-11-30T07:20:38.681Z,7.20
2017-11-30T07:23:06.944Z,7.00
2017-11-30T07:25:35.227Z,7.30
2017-11-30T07:28:03.533Z,7.70
2017-11-30T07:30:32.174Z,8.20
2017-11-30T07:33:00.444Z,8.20
2017-11-30T07:35:29.439Z,8.30
2017-11-30T07:37:57.936Z,8.70
2017-11-30T07:40:26.213Z,9.10
2017-11-30T07:42:54.455Z,9.10
2017-11-30T07:45:22.704Z,9.20
2017-11-30T07:47:51.106Z,9.30
2017-11-30T07:50:19.349Z,8.80
2017-11-30T07:52:47.895Z,8.50
2017-11-30T07:55:16.479Z,8.60
2017-11-30T07:57:44.734Z,8.80
2017-11-30T08:00:13.021Z,8.80
2017-11-30T08:02:41.292Z,9.00
2017-11-30T08:05:09.528Z,9.10
2017-11-30T08:07:37.798Z,9.40
2017-11-30T08:10:06.065Z,9.60
2017-11-30T08:12:34.707Z,9.30
2017-11-30T08:15:03.298Z,9.30
2017-11-30T08:17:31.562Z,8.90
2017-11-30T08:20:00.242Z,8.40
2017-11-30T08:22:29.105Z,7.90
2017-11-30T08:24:58.968Z,8.10
2017-11-30T08:27:31.437Z,8.70
2017-11-30T08:30:00.695Z,9.30
2017-11-30T08:32:30.953Z,9.70
2017-11-30T08:34:59.629Z,10.30
2017-11-30T08:37:29.258Z,11.40
2017-11-30T08:39:59.382Z,12.60
2017-11-30T08:42:27.686Z,12.60
2017-11-30T08:44:55.945Z,12.50
2017-11-30T08:47:24.614Z,13.70
2017-11-30T08:49:52.883Z,13.70
2017-11-30T08:52:21.369Z,13.60
2017-11-30T08:54:49.743Z,13.30
2017-11-30T08:57:18.014Z,13.90
2017-11-30T08:59:46.245Z,14.60
2017-11-30T09:02:14.504Z,15.50
2017-11-30T09:04:43.157Z,15.50
2017-11-30T09:07:11.434Z,15.60
2017-11-30T09:09:39.676Z,15.30
2017-11-30T09:12:07.933Z,15.20
2017-11-30T09:14:36.226Z,16.00
2017-11-30T09:17:04.492Z,16.90
2017-11-30T09:19:32.753Z,17.00
2017-11-30T09:22:01.037Z,17.50
2017-11-30T09:24:29.320Z,18.00
2017-11-30T09:26:57.646Z,17.60
2017-11-30T09:29:25.926Z,17.20
2017-11-30T09:31:54.171Z,17.40
2017-11-30T09:34:22.463Z,17.00
2017-11-30T09:36:50.753Z,16.40
2017-11-30T09:39:18.999Z,16.30
2017-11-30T09:41:47.349Z,17.00
2017-11-30T09:44:15.625Z,17.30
2017-11-30T09:46:43.892Z,17.90
2017-11-30T09:49:12.145Z,17.90
2017-11-30T09:51:40.714Z,17.90
2017-11-30T09:54:08.990Z,17.20
2017-11-30T09:56:37.250Z,15.80
2017-11-30T09:59:05.530Z,15.50
2017-11-30T10:01:34.478Z,15.30
2017-11-30T10:04:02.773Z,15.20
2017-11-30T10:06:31.041Z,15.40
2017-11-30T10:08:59.327Z,15.60
2017-11-30T10:11:27.894Z,15.10
2017-11-30T10:13:56.126Z,14.30
2017-11-30T10:16:24.367Z,14.60
2017-11-30T10:18:52.630Z,15.10
2017-11-30T10:21:21.449Z,16.10
2017-11-30T10:23:49.740Z,16.90
2017-11-30T10:26:18.019Z,16.10
2017-11-30T10:28:46.329Z,16.10
2017-11-30T10:31:14.866Z,17.00
2017-11-30T10:33:43.169Z,17.70
2017-11-30T10:36:11.807Z,15.50
2017-11-30T10:38:40.079Z,15.50
2017-11-30T10:41:08.689Z,14.90
2017-11-30T10:43:36.935Z,15.40
2017-11-30T10:46:05.184Z,16.30
2017-11-30T10:48:33.537Z,17.40
2017-11-30T10:51:02.205Z,17.50
2017-11-30T10:53:30.515Z,17.50
2017-11-30T10:55:59.157Z,17.70
2017-11-30T10:58:27.754Z,17.70
2017-11-30T11:00:56.074Z,17.50
2017-11-30T11:03:24.387Z,16.80
2017-11-30T11:05:52.646Z,15.90
2017-11-30T11:08:20.979Z,15.90
2017-11-30T11:10:49.702Z,15.70
2017-11-30T11:13:17.985Z,14.20
2017-11-30T11:15:46.342Z,12.90
2017-11-30T11:18:14.690Z,12.40
2017-11-30T11:20:42.978Z,12.60
2017-11-30T11:23:11.250Z,12.90
2017-11-30T11:25:39.923Z,12.70
2017-11-30T11:28:08.718Z,12.90
2017-11-30T11:30:36.975Z,12.90
2017-11-30T11:33:05.239Z,13.70
2017-11-30T11:35:33.544Z,14.70
2017-11-30T11:38:01.802Z,15.60
2017-11-30T11:40:30.499Z,15.70
2017-11-30T11:42:59.073Z,15.60
2017-11-30T11:45:27.316Z,15.50
2017-11-30T11:47:56.447Z,14.80
2017-11-30T11:50:24.974Z,15.20
2017-11-30T11:52:53.281Z,15.60
2017-11-30T11:55:21.699Z,15.50
2017-11-30T11:57:50.189Z,15.60
2017-11-30T12:00:18.484Z,15.60
2017-11-30T12:02:47.749Z,14.80
2017-11-30T12:05:16.046Z,13.90
2017-11-30T12:07:44.313Z,13.80
2017-11-30T12:10:12.632Z,13.70
2017-11-30T12:12:40.934Z,13.60
2017-11-30T12:15:09.568Z,13.70
2017-11-30T12:17:37.852Z,14.00
2017-11-30T12:20:06.150Z,14.60
2017-11-30T12:22:35.070Z,14.50
2017-11-30T12:25:03.942Z,13.90
2017-11-30T12:27:32.312Z,13.40
2017-11-30T12:30:00.788Z,13.30
2017-11-30T12:32:29.297Z,14.40
2017-11-30T12:34:57.549Z,14.70
2017-11-30T12:37:26.372Z,14.50
2017-11-30T12:39:54.806Z,15.10
2017-11-30T12:42:23.087Z,15.90
2017-11-30T12:44:51.359Z,16.80
2017-11-30T12:47:19.723Z,16.90
2017-11-30T12:49:48.012Z,16.30
2017-11-30T12:52:16.269Z,15.60
2017-11-30T12:54:44.939Z,16.50
2017-11-30T12:57:13.574Z,17.20
2017-11-30T12:59:42.782Z,17.20
2017-11-30T13:02:12.013Z,17.70
2017-11-30T13:04:40.815Z,17.80
2017-11-30T13:07:09.808Z,17.80
2017-11-30T13:09:39.141Z,17.20
2017-11-30T13:12:08.070Z,17.20
2017-11-30T13:14:36.726Z,17.20
2017-11-30T13:17:05.892Z,17.50
2017-11-30T13:19:34.618Z,17.60
2017-11-30T13:22:04.242Z,17.80
2017-11-30T13:24:33.085Z,17.80
2017-11-30T13:27:01.816Z,17.30
2017-11-30T13:29:31.074Z,16.80
2017-11-30T13:31:59.553Z,17.00
2017-11-30T13:34:27.825Z,17.00
2017-11-30T13:36:56.091Z,17.10
2017-11-30T13:39:24.332Z,17.20
2017-11-30T13:41:52.600Z,17.50
2017-11-30T13:44:21.209Z,17.00
2017-11-30T13:46:50.068Z,17.20
2017-11-30T13:49:18.606Z,17.60
2017-11-30T13:51:47.707Z,17.60
2017-11-30T13:54:16.258Z,18.00
2017-11-30T13:56:45.379Z,18.00
2017-11-30T13:59:14.340Z,18.20
2017-11-30T14:01:43.786Z,18.10
2017-11-30T14:04:12.908Z,18.10
2017-11-30T14:06:41.765Z,18.30
2017-11-30T14:09:10.851Z,17.90
2017-11-30T14:11:40.061Z,17.90
2017-11-30T14:14:09.268Z,17.50
2017-11-30T14:16:38.228Z,16.80
2017-11-30T14:19:07.235Z,16.60
2017-11-30T14:21:36.176Z,15.40
2017-11-30T14:24:06.407Z,13.40
2017-11-30T14:26:35.406Z,13.40
2017-11-30T14:29:04.710Z,13.90
2017-11-30T14:31:33.598Z,13.90
2017-11-30T14:34:03.360Z,13.80
2017-11-30T14:36:32.304Z,13.50
2017-11-30T14:39:00.700Z,12.60
2017-11-30T14:41:29.439Z,12.40
2017-11-30T14:43:57.956Z,12.40
2017-11-30T14:46:26.384Z,11.20
2017-11-30T14:48:55.407Z,10.60
2017-11-30T14:51:23.653Z,10.60
2017-11-30T14:53:51.914Z,10.60
2017-11-30T14:56:20.204Z,11.00
2017-11-30T14:58:48.472Z,11.70
2017-11-30T15:01:16.729Z,12.40
2017-11-30T15:03:45.010Z,13.00
2017-11-30T15:06:13.270Z,13.50
2017-11-30T15:08:41.833Z,13.70
2017-11-30T15:11:10.116Z,13.80
2017-11-30T15:13:38.796Z,14.30
2017-11-30T15:16:07.468Z,14.50
2017-11-30T15:18:35.774Z,14.50
2017-11-30T15:21:04.783Z,14.70
2017-11-30T15:23:33.033Z,14.70
2017-11-30T15:26:01.680Z,13.50
2017-11-30T15:28:30.302Z,13.50
2017-11-30T15:30:58.541Z,13.10
2017-11-30T15:33:26.813Z,12.10
2017-11-30T15:35:56.340Z,11.60
2017-11-30T15:38:24.601Z,11.60
2017-11-30T15:40:52.889Z,11.20
2017-11-30T15:43:21.140Z,11.00
2017-11-30T15:45:49.419Z,10.70
2017-11-30T15:48:17.812Z,9.80
2017-11-30T15:50:46.060Z,8.80
2017-11-30T15:53:14.315Z,8.00
2017-11-30T15:55:42.593Z,7.00
2017-11-30T15:58:10.869Z,7.20
2017-11-30T16:00:39.105Z,7.40
2017-11-30T16:03:07.376Z,7.80
2017-11-30T16:05:35.608Z,7.80
2017-11-30T16:08:03.893Z,7.80
2017-11-30T16:10:32.137Z,7.70
2017-11-30T16:13:00.784Z,8.00
2017-11-30T16:15:29.046Z,8.00
2017-11-30T16:17:57.321Z,8.60
2017-11-30T16:20:25.588Z,8.80
2017-11-30T16:22:53.853Z,9.30
2017-11-30T16:25:22.152Z,9.80
2017-11-30T16:27:50.433Z,10.40
2017-11-30T16:30:18.684Z,10.80
2017-11-30T16:32:46.957Z,11.10
2017-11-30T16:35:15.226Z,11.20
2017-11-30T16:37:43.640Z,11.50
2017-11-30T16:40:12.086Z,11.20
2017-11-30T16:42:40.341Z,11.50
2017-11-30T16:45:08.992Z,11.80
2017-11-30T16:47:37.290Z,11.80
2017-11-30T16:50:05.989Z,11.90
2017-11-30T16:52:34.259Z,11.90
2017-11-30T16:55:02.908Z,11.70
2017-11-30T16:57:31.151Z,11.70
2017-11-30T16:59:59.523Z,10.80
2017-11-30T17:02:27.783Z,9.60
2017-11-30T17:04:56.426Z,7.50
2017-11-30T17:07:24.704Z,7.50
2017-11-30T17:09:52.943Z,6.70
2017-11-30T17:12:21.222Z,6.10
2017-11-30T17:14:49.495Z,5.80
2017-11-30T17:17:17.791Z,5.40
2017-11-30T17:19:46.064Z,5.30
2017-11-30T17:22:14.366Z,5.40
2017-11-30T17:24:42.616Z,5.80
2017-11-30T17:27:10.894Z,6.60
2017-11-30T17:29:39.150Z,6.50
2017-11-30T17:32:07.396Z,6.30
2017-11-30T17:34:36.072Z,6.50
2017-11-30T17:37:04.732Z,7.20
2017-11-30T17:39:32.975Z,7.20
2017-11-30T17:42:01.321Z,8.00
2017-11-30T17:44:29.954Z,8.10
2017-11-30T17:46:58.221Z,8.10
2017-11-30T17:49:26.482Z,8.40
2017-11-30T17:51:54.726Z,8.90
2017-11-30T17:54:23.870Z,9.50
2017-11-30T17:56:52.126Z,9.90
2017-11-30T17:59:20.699Z,10.20
2017-11-30T18:01:48.984Z,10.40
2017-11-30T18:04:18.238Z,10.40
2017-11-30T18:06:46.482Z,10.50
2017-11-30T18:09:14.753Z,10.60
2017-11-30T18:11:42.993Z,10.70
2017-11-30T18:14:11.240Z,10.20
2017-11-30T18:16:39.538Z,10.10
2017-11-30T18:19:07.837Z,9.90
2017-11-30T18:21:36.471Z,10.20
2017-11-30T18:24:04.853Z,10.20
2017-11-30T18:26:33.093Z,10.50
2017-11-30T18:29:01.642Z,10.80
2017-11-30T18:31:30.647Z,11.00
2017-11-30T18:33:58.904Z,11.00
2017-11-30T18:36:27.637Z,10.30
2017-11-30T18:38:55.880Z,10.30
2017-11-30T18:41:24.125Z,10.20
2017-11-30T18:43:52.441Z,9.90
2017-11-30T18:46:20.684Z,10.10
2017-11-30T18:48:49.337Z,9.70
2017-11-30T18:51:17.576Z,9.80
2017-11-30T18:53:45.831Z,9.30
2017-11-30T18:56:14.478Z,8.00
2017-11-30T18:58:42.729Z,8.00
2017-11-30T19:01:10.987Z,7.40
2017-11-30T19:03:39.280Z,7.10
2017-11-30T19:06:07.520Z,6.60
2017-11-30T19:08:36.167Z,7.60
2017-11-30T19:11:04.447Z,7.60
2017-11-30T19:13:32.714Z,7.70
2017-11-30T19:16:01.024Z,7.90
2017-11-30T19:18:29.779Z,8.10
2017-11-30T19:20:58.986Z,8.10
2017-11-30T19:23:27.256Z,8.10
2017-11-30T19:25:55.555Z,8.40
2017-11-30T19:28:23.785Z,8.20
2017-11-30T19:30:52.090Z,8.30
2017-11-30T19:33:20.576Z,8.20
2017-11-30T19:35:48.825Z,8.40
2017-11-30T19:38:17.214Z,8.70
2017-11-30T19:40:45.443Z,8.90
2017-11-30T19:43:13.720Z,8.30
2017-11-30T19:45:42.024Z,7.70
2017-11-30T19:48:10.272Z,7.10
2017-11-30T19:50:38.543Z,6.90
2017-11-30T19:53:07.279Z,6.00
2017-11-30T19:55:35.519Z,6.00
2017-11-30T19:58:03.764Z,5.50
2017-11-30T20:00:32.452Z,5.20
2017-11-30T20:03:01.105Z,5.30
2017-11-30T20:05:29.368Z,5.30
2017-11-30T20:07:57.676Z,5.10
2017-11-30T20:10:26.397Z,4.90
2017-11-30T20:15:32.584Z,4.60
2017-11-30T20:18:03.449Z,5.00
2017-11-30T20:20:32.831Z,4.90
2017-11-30T20:23:01.096Z,5.30
2017-11-30T20:25:29.341Z,5.90
2017-11-30T20:27:57.716Z,6.20
2017-11-30T20:30:25.972Z,6.20
2017-11-30T20:32:54.346Z,6.50
2017-11-30T20:35:22.631Z,6.50
2017-11-30T20:37:50.887Z,6.50
2017-11-30T20:40:19.145Z,6.70
2017-11-30T20:42:47.415Z,7.10
2017-11-30T20:45:15.691Z,7.30
2017-11-30T20:47:43.911Z,7.40
2017-11-30T20:50:12.181Z,7.40
2017-11-30T20:52:40.986Z,7.00
2017-11-30T20:55:09.339Z,6.50
2017-11-30T20:57:37.614Z,6.00
2017-11-30T21:00:06.095Z,5.60
2017-11-30T21:02:34.351Z,5.80
2017-11-30T21:05:02.634Z,5.80
2017-11-30T21:07:30.959Z,5.40
2017-11-30T21:09:59.260Z,5.00
2017-11-30T21:12:27.631Z,4.70
2017-11-30T21:14:59.742Z,4.30
2017-11-30T21:17:31.130Z,4.10
2017-11-30T21:20:05.054Z,3.90
2017-11-30T21:22:35.052Z,4.00
2017-11-30T21:25:06.955Z,4.20
2017-11-30T21:27:36.257Z,4.20
2017-11-30T21:32:43.267Z,4.20
2017-11-30T21:35:13.746Z,4.10
2017-11-30T21:37:42.755Z,4.10
2017-11-30T21:40:11.140Z,4.30
2017-11-30T21:42:40.237Z,4.80
2017-11-30T21:45:09.046Z,5.20
2017-11-30T21:47:39.088Z,5.10
2017-11-30T21:50:08.374Z,4.90
2017-11-30T21:52:39.302Z,4.60
2017-11-30T21:55:08.923Z,4.50
2017-11-30T21:57:40.566Z,4.30
2017-11-30T22:00:10.953Z,4.10
2017-11-30T22:02:39.380Z,4.00
2017-11-30T22:05:07.956Z,4.00
2017-11-30T22:07:37.551Z,4.10
2017-11-30T22:10:10.484Z,4.00
2017-11-30T22:12:43.368Z,4.20
2017-11-30T22:15:12.173Z,4.20
2017-11-30T22:17:46.558Z,4.60
2017-11-30T22:20:17.545Z,5.00
2017-11-30T22:22:48.125Z,5.20
2017-11-30T22:25:16.400Z,5.80
2017-11-30T22:27:44.640Z,6.10
2017-11-30T22:30:13.264Z,6.10
2017-11-30T22:32:41.536Z,6.40
2017-11-30T22:35:09.788Z,6.50
2017-11-30T22:37:38.109Z,6.90
2017-11-30T22:40:06.374Z,7.00
2017-11-30T22:42:34.633Z,7.40
2017-11-30T22:45:03.091Z,7.90
2017-11-30T22:47:31.327Z,8.00
2017-11-30T22:49:59.969Z,7.50
2017-11-30T22:52:28.276Z,7.50
2017-11-30T22:54:56.532Z,7.40
2017-11-30T22:57:24.819Z,7.20
2017-11-30T22:59:53.072Z,6.90
2017-11-30T23:02:21.987Z,6.40
2017-11-30T23:04:50.356Z,6.40
2017-11-30T23:07:18.607Z,6.40
2017-11-30T23:09:46.865Z,6.40
2017-11-30T23:12:15.187Z,6.30
2017-11-30T23:14:43.439Z,6.50
2017-11-30T23:17:11.743Z,6.50
2017-11-30T23:19:40.134Z,5.90
2017-11-30T23:22:08.543Z,5.60
2017-11-30T23:24:36.864Z,5.60
2017-11-30T23:27:05.809Z,5.10
2017-11-30T23:29:36.273Z,4.90
2017-11-30T23:32:04.806Z,5.10
2017-11-30T23:34:33.094Z,5.60
2017-11-30T23:37:01.402Z,5.60
2017-11-30T23:39:29.836Z,5.30
2017-11-30T23:41:58.167Z,5.40
2017-11-30T23:44:26.426Z,5.40
2017-11-30T23:46:54.765Z,5.40
2017-11-30T23:49:23.412Z,5.10
2017-11-30T23:51:51.655Z,5.10
2017-11-30T23:54:20.024Z,4.90
2017-11-30T23:56:48.229Z,4.90
2017-11-30T23:59:17.126Z,5.40
